NWS Home NWS Lubbock West Texas Mesonet Central Sector Latest Conditions as of 0126 PM, Fri Mar 05, 2021

Latest   N   C   S   Daily Sum   3hrΔ   24hrΔ   Soil Data 
Site Map   24hr Precip   72hr Precip   Google Plot


Station Time of Last Temp Dew Pt. RH Wind Direction Wind Speed Wind Gust Max Wind Max Temp Min Temp Max RH Min RH Altimeter 1HR Rain Today's Rain Solar Rad Red Flag
Abernathy 5ENE  01:20 PM 51 37 59% N2833 46 mph 355° @ 0918 AM 53 42 76 32 30.21" 0 0.00 360  
Aiken 3WSW  01:20 PM 51 38 61% N3034 43 mph 13° @ 1153 AM 53 41 83 38 30.23" 0 0.00 132  
Amherst 1NE  01:20 PM 51 38 60% N2535 48 mph 341° @ 0905 AM 53 41 80 35 30.24" 0 0.00 241  
Anton 6SSW  01:20 PM 54 36 51% N3038 44 mph 328° @ 0815 AM 55 40 76 32 30.23" 0 0.00 358  
Aspermont 3NE  01:20 PM 54 41 62% N2331 39 mph 354° @ 1230 PM 63 45 62 26 30.13" 0 0.00 52  
Bootleg 11WNW  01:20 PM 47 37 68% N2228 41 mph 356° @ 1025 AM 49 39 87 48 30.31" 0 0.00 95  
Brownfield 2S  01:20 PM 56 38 50% N2335 45 mph 346° @ 0946 AM 57 42 67 30 30.20" 0 0.00 728  
Caprock Canyons State Park  01:15 PM 52 38 60% NE2029 36 mph 52° @ 0109 PM 54 47 79 29 30.20" 0 0.00 268  
Childress 2NNE  01:20 PM 54 41 63% N2533 39 mph 7° @ 1210 PM 60 41 80 31 30.16" 0 0.00 453  
Clarendon 2WSW  01:20 PM 50 40 70% N2228 45 mph 14° @ 1055 AM 52 41 87 44 30.21" 0 0.00 290  
Claude 12SW  01:15 PM 46 40 79% N1922 42 mph 353° @ 1032 AM 48 40 100 48 30.24" 0 0.00 51  
Comanche Springs  01:20 PM 55 43 64% N2028 41 mph 345° @ 1101 AM 61 47 70 26 30.14" 0 0.00 345  
Crowell 1E  01:20 PM 54 43 66% N2023 42 mph 9° @ 1155 AM 60 47 71 26 30.13" 0 0.00 80  
Denver City 7WNW  01:20 PM 54 37 54% N2232 51 mph 352° @ 0945 AM 56 41 63 36 30.24" 0 0.00 372  
Dimmitt 2NE  01:20 PM 48 38 70% N2631 44 mph 341° @ 0740 AM 49 37 93 45 30.25" 0 0.00 129  
Dora NM 2SW  01:20 PM 52 36 55% N3039 44 mph 354° @ 0925 AM 52 38 64 34 30.26" 0 0.00 524  
Earth 9WSW  01:20 PM 51 39 63% N2932 46 mph 343° @ 0856 AM 52 36 80 43 30.26" 0 0.00 258  
Estelline 3SSE  01:20 PM 55 40 57% N2226 36 mph 353° @ 0102 PM 57 43 86 32 30.18" 0 0.00 267  
Floydada 2NNE  01:20 PM 51 36 56% N2431 40 mph 6° @ 1220 PM 53 41 77 33 30.19" 0 0.00 138  
Fluvanna 3WNW  01:20 PM 58 39 50% N3037 44 mph 330° @ 0915 AM 60 46 60 25 30.14" 0 0.00 407  
Friona 2NE  01:20 PM 47 38 72% N2231 48 mph 348° @ 0805 AM 48 33 86 49 30.28" 0 0.00 80  
Gail 2ESE  01:20 PM 61 40 46% N2328 47 mph 348° @ 0958 AM 62 48 59 25 30.14" 0 0.00 405  
Goodlett 3W  01:20 PM 53 41 65% N2433 39 mph 9° @ 1005 AM 60 43 79 30 30.14" 0 0.00 129  
Graham 5SSW  01:20 PM 57 39 51% N2338 48 mph 342° @ 1255 PM 58 45 66 27 30.16" 0 0.00 905  
Guthrie 10WSW  01:20 PM 52 44 72% N1723 44 mph 357° @ 1141 AM 61 47 76 23 30.15" 0 0.00 407  
Hackberry 2SSE  01:20 PM 57 43 60% N3032 39 mph 7° @ 1133 AM 61 45 75 28 30.15" 0 0.00 1008  
Happy 1E  01:20 PM 46 42 84% N1720 42 mph 346° @ 0724 AM 50 41 91 47 30.26" 0 0.00 294  
Hart 3N  01:20 PM 48 39 71% N2431 45 mph 336° @ 0805 AM 50 39 89 47 30.25" 0 0.00 106  
Haskell 1NW  01:20 PM 60 43 54% N2734 43 mph 356° @ 1255 PM 62 45 58 29 30.08" 0 0.00 225  
Hefner 1SW  01:20 PM 59 44 58% N2731 42 mph 340° @ 1245 PM 61 48 62 27 30.10" 0 0.00 260  
Hereford 2NW  01:20 PM 48 41 78% N2328 39 mph 346° @ 0700 AM 48 38 95 58 30.27" 0 0.01 354  
Hobbs NM 5NW  01:20 PM 55 35 46% NE2228 43 mph 11° @ 1117 AM 58 41 49 32 30.26" 0 0.00 316  
Jayton 1SSE  01:20 PM 56 42 61% N2230 35 mph 348° @ 1250 PM 61 45 62 25 30.14" 0 0.00 90  
Knox City 3NW  01:20 PM 58 43 58% N2935 41 mph 354° @ 1237 PM 65 44 64 21 30.11" 0 0.00 329  
Lake Alan Henry 1NW  01:20 PM 58 41 54% N2630 37 mph 359° @ 0940 AM 62 47 59 24 30.15" 0 0.00 374  
Lamesa 2SE  01:20 PM 59 39 47% N2433 46 mph 2° @ 1120 AM 59 44 64 29 30.17" 0 0.00 764  
Lesley 2S  01:20 PM 54 41 60% NE2127 42 mph 359° @ 1043 AM 58 43 78 40 30.20" 0 0.00 256  
Levelland 4S  01:20 PM 55 38 54% N3341 48 mph 344° @ 0944 AM 55 42 72 27 30.21" 0 0.00 327  
Lubbock 3WNW TTU  01:20 PM 53 37 54% N2334 39 mph 357° @ 1135 AM 55 43 77 30 30.22" 0 0.00 342  
McAdoo 3NNW  01:20 PM 52 39 62% N2633 43 mph 358° @ 1227 PM 55 41 72 33 30.18" 0 0.00 356  
Memphis 1NE  01:20 PM 50 42 74% N2026 37 mph 9° @ 1228 PM 57 42 90 37 30.20" 0 0.00 106  
Morton 1ENE  01:20 PM 53 37 56% N2633 45 mph 343° @ 0910 AM 53 41 66 29 30.24" 0 0.00 363  
Muleshoe 2SSW  01:20 PM 49 40 75% NE1724 39 mph 358° @ 0935 AM 51 35 80 44 30.27" 0 0.00 517  
New Home  01:20 PM 56 37 48% N2330 38 mph 346° @ 0934 AM 57 42 73 30 30.20" 0 0.00 509  
Northfield 1S  01:20 PM 54 39 57% N2533 33 mph 19° @ 0120 PM 55 47 89 30 30.18" 0 0.00 116  
O'Donnell 1N  01:20 PM 57 39 51% N3241 43 mph 354° @ 1055 AM 59 40 67 35 30.18" 0 0.00 589  
Odell 4ENE  01:20 PM 51 44 75% N2833 38 mph 9° @ 1236 PM 57 43 91 40 30.13" 0 0.00 82  
Olton 6S  01:20 PM 50 37 64% N2936 41 mph 347° @ 0925 AM 51 40 83 33 30.23" 0 0.00 178  
Paducah 10SW  01:20 PM 55 41 62% N2632 41 mph 6° @ 1100 AM 58 45 81 27 30.15" 0 0.00 740  
Palo Duro 4E (JA Ranch)  01:20 PM 51 39 63% NE2225 40 mph 17° @ 1207 PM 56 43 83 41 30.23" 0 0.00 72  
Palo Duro Canyon SP Floor  01:20 PM 51 40 67% N1114 31 mph 334° @ 1025 AM 52 43 85 41 30.25" 0 0.00 78  
Palo Duro Canyon State Park Rim  01:20 PM 48 39 70% N1215 39 mph 348° @ 0658 AM 49 40 92 44 30.26" 0 0.00 56  
Plains 3N  01:20 PM 53 37 56% N2734 48 mph 348° @ 1000 AM 54 42 68 31 30.23" 0 0.00 365  
Plainview 1S  01:20 PM 50 37 62% N2836 43 mph 4° @ 1152 AM 52 42 79 34 30.22" 0 0.00 224  
Post 1NE  01:20 PM 59 39 48% N2132 49 mph 320° @ 0857 AM 59 48 62 25 30.16" 0 0.00 603  
Ralls 1SE  01:20 PM 54 36 50% N3447 47 mph 16° @ 0120 PM 54 44 73 30 30.18" 0 0.00 387  
Reese Center  01:20 PM 54 37 52% N3139 45 mph 6° @ 1206 PM 57 41 74 29 30.22" 0 0.00 418  
Roaring Springs 3N  01:20 PM 51 40 67% N1824 43 mph 318° @ 1207 PM 56 45 74 27 30.17" 0 0.00 171  
Rotan 5W  01:20 PM 59 40 47% N2529 41 mph 338° @ 1239 PM 63 49 53 23 30.12" 0 0.00 209  
Seagraves 1SW  01:20 PM 57 38 48% N2834 53 mph 344° @ 0951 AM 58 39 60 33 30.21" 0 0.00 993  
Seminole 2NNE  01:20 PM 59 38 46% N2740 48 mph 358° @ 1100 AM 60 41 55 35 30.20" 0 0.00 807  
Seymour 3NW  01:20 PM 55 44 68% N2631 35 mph 350° @ 1035 AM 60 46 83 40 30.09" 0 0.00 158  
Silverton 7ESE  01:20 PM 50 38 65% N2734 38 mph 18° @ 1140 AM 51 41 90 40 30.20" 0 0.00 95  
Slaton 2NE  01:20 PM 55 36 49% N3138 46 mph 352° @ 0106 PM 56 45 70 27 30.19" 0 0.00 621  
Smyer  01:20 PM 54 37 54% N2630 43 mph 352° @ 1016 AM 56 43 74 29 30.22" 0 0.00 785  
Snyder 3E  01:20 PM 61 39 45% N2539 43 mph 331° @ 1010 AM 64 48 59 25 30.11" 0 0.00 426  
Snyder 3SSW  01:20 PM 61 39 43% N2529 39 mph 343° @ 1024 AM 64 49 57 25 30.13" 0 0.00 641  
South Plains 3ENE  01:20 PM 51 38 60% N2630 40 mph 360° @ 1125 AM 53 41 87 37 30.20" 0 0.00 146  
Spur 1W  01:20 PM 52 41 66% N2229 37 mph 1° @ 1225 PM 60 46 66 28 30.16" 0 0.00 172  
Stamford 5ESE  01:20 PM 62 43 49% N3236 41 mph 349° @ 1233 PM 63 41 64 36 30.08" 0 0.00 369  
Sundown 8WSW  01:20 PM 53 37 55% N2837 47 mph 339° @ 0845 AM 55 43 69 25 30.23" 0 0.00 275  
Tahoka 3NNE  01:20 PM 56 38 50% N3443 45 mph 322° @ 0838 AM 58 40 72 35 30.18" 0 0.00 297  
Tatum NM 2SW  01:20 PM 51 36 57% N2934 47 mph 356° @ 1040 AM 54 38 57 34 30.27" 0 0.00 220  
Throckmorton 1SW  01:20 PM 58 44 60% N2127 38 mph 333° @ 1254 PM 62 48 79 29 30.06" 0 0.00 253  
Truscott 2SE  01:20 PM 55 43 64% N1922 38 mph 357° @ 1158 AM 61 48 66 24 30.12" 0 0.00 186  
Tulia 2ENE  01:20 PM 47 38 73% N2027 44 mph 341° @ 0755 AM 49 41 86 39 30.24" 0 0.00 100  
Turkey 2WSW  01:20 PM 53 39 58% N2937 41 mph 347° @ 0110 PM 55 45 76 32 30.18" 0 0.00 155  
Umbarger 3NNE  01:20 PM 47 42 83% N2328 38 mph 340° @ 0555 AM 49 38 94 53 30.27" 0.01 0.01 344  
Vigo Park  01:20 PM 47 41 80% N2125 39 mph 16° @ 1137 AM 51 38 100 43 30.24" 0 0.00 212  
Weinert 2NNE  01:20 PM 56 42 59% N2832 39 mph 360° @ 1242 PM 62 43 60 30 30.11" 0 0.00 183  
Welch  01:20 PM 59 39 47% N3135 53 mph 342° @ 1010 AM 59 40 65 37 30.19" 0 0.00 356  
Wellington 6SE  01:20 PM 52 40 64% NE2430 42 mph 20° @ 1103 AM 54 42 83 40 30.18" 0 0.00 86  
White River Lake 6NW  01:20 PM 54 39 56% N2531 47 mph 343° @ 0857 AM 57 46 66 27 30.16" 0 0.00 347  
Wolfforth 6SSW  01:20 PM 55 36 48% N3542 47 mph 342° @ 0933 AM 58 43 71 29 30.21" 0 0.00 478  

West Texas Mesonet Home   Site Map/Menu  NWS Lubbock Soil Data  Daily Summary Page  24hr Precip  72hr Precip  Google Plot